Moneymore, United Kingdom
Current Conditions -  °F | °C
As of 4:50 AM on Thursday 23 Oct 2014 (Local Time) from EGAA Reporting Station
Overcast Overcast  
Wind Chill: 54°   Ceiling: 1800
Heat Index: 54°   Visibility: 6mi
Dew Point: 50°   Wind: 15mph
Humidity: 88%   Direction: 230°SW
Pressure: 29.88"   Gusts: NA
Location:  54.69°N, 6.67°W
Report Text: EGAA 230350Z 23013KT 9999 OVC018 12/10 Q1012
Loading
Personal Weather Stations






























Interactive Weather Map New forecast layout! Learn more

10-Day Weather Forecast

Advertisements
Track Severe Weather on mobile